createdAt,value
2024-04-15T00:00:16.269Z,0
2024-04-15T00:01:32.562Z,0
2024-04-15T00:02:48.861Z,0
2024-04-15T00:04:05.188Z,0
2024-04-15T00:05:21.440Z,0
2024-04-15T00:06:37.745Z,0
2024-04-15T00:07:54.075Z,0
2024-04-15T00:09:10.329Z,0
2024-04-15T00:10:26.613Z,0
2024-04-15T00:11:42.910Z,0
2024-04-15T00:12:59.256Z,0
2024-04-15T00:14:15.509Z,0
2024-04-15T00:15:31.805Z,0
2024-04-15T00:16:47.112Z,0
2024-04-15T00:18:03.438Z,0
2024-04-15T00:19:19.729Z,0
2024-04-15T00:20:36.026Z,0
2024-04-15T00:21:52.280Z,0
2024-04-15T00:23:08.612Z,0
2024-04-15T00:24:24.874Z,0
2024-04-15T00:25:41.197Z,0
2024-04-15T00:26:57.469Z,0
2024-04-15T00:28:13.751Z,0
2024-04-15T00:29:30.088Z,0
2024-04-15T00:30:46.350Z,0
2024-04-15T00:32:02.643Z,0
2024-04-15T00:33:17.940Z,0
2024-04-15T00:34:34.273Z,0
2024-04-15T00:35:50.546Z,0
2024-04-15T00:37:06.836Z,0
2024-04-15T00:38:23.158Z,0
2024-04-15T00:39:39.426Z,0
2024-04-15T00:40:55.715Z,0
2024-04-15T00:42:12.044Z,0
2024-04-15T00:43:28.305Z,0
2024-04-15T00:44:44.585Z,0
2024-04-15T00:46:00.919Z,0
2024-04-15T00:47:17.192Z,0
2024-04-15T00:48:33.477Z,0
2024-04-15T00:49:48.782Z,0
2024-04-15T00:51:05.073Z,0
2024-04-15T00:52:21.382Z,0
2024-04-15T00:53:37.678Z,0
2024-04-15T00:54:53.971Z,0
2024-04-15T00:56:10.260Z,0
2024-04-15T00:57:26.585Z,0
2024-04-15T00:58:42.854Z,0
2024-04-15T00:59:59.141Z,0
2024-04-15T01:01:15.438Z,0
2024-04-15T01:02:31.726Z,0
2024-04-15T01:03:48.023Z,0
2024-04-15T01:05:04.313Z,0
2024-04-15T01:06:19.624Z,0
2024-04-15T01:07:35.910Z,0
2024-04-15T01:08:52.205Z,0
2024-04-15T01:10:08.515Z,0
2024-04-15T01:11:24.791Z,0
2024-04-15T01:12:41.087Z,0
2024-04-15T01:13:57.425Z,0
2024-04-15T01:15:13.675Z,0
2024-04-15T01:16:29.980Z,0
2024-04-15T01:17:46.262Z,0
2024-04-15T01:19:02.555Z,0
2024-04-15T01:20:18.867Z,0
2024-04-15T01:21:35.192Z,0
2024-04-15T01:22:50.470Z,0
2024-04-15T01:24:06.768Z,0
2024-04-15T01:25:23.058Z,0
2024-04-15T01:26:39.353Z,0
2024-04-15T01:27:55.636Z,0
2024-04-15T01:29:11.944Z,0
2024-04-15T01:30:27.255Z,0
2024-04-15T01:31:43.550Z,0
2024-04-15T01:32:59.833Z,0
2024-04-15T01:34:16.134Z,0
2024-04-15T01:35:32.433Z,0
2024-04-15T01:36:48.757Z,0
2024-04-15T01:38:05.012Z,0
2024-04-15T01:39:21.309Z,0
2024-04-15T01:40:37.597Z,0
2024-04-15T01:41:53.888Z,0
2024-04-15T01:43:10.187Z,0
2024-04-15T01:44:26.475Z,0
2024-04-15T01:45:42.781Z,0
2024-04-15T01:46:58.083Z,0
2024-04-15T01:48:14.378Z,0
2024-04-15T01:49:30.669Z,0
2024-04-15T01:50:46.961Z,0
2024-04-15T01:52:03.257Z,0
2024-04-15T01:53:19.564Z,0
2024-04-15T01:54:35.842Z,0
2024-04-15T01:55:52.155Z,0
2024-04-15T01:57:08.446Z,0
2024-04-15T01:58:24.740Z,0
2024-04-15T01:59:41.037Z,0
2024-04-15T02:00:57.319Z,0
2024-04-15T02:02:13.663Z,0
2024-04-15T02:03:28.937Z,0
2024-04-15T02:04:45.212Z,0
2024-04-15T02:06:01.520Z,0
2024-04-15T02:07:17.858Z,0
2024-04-15T02:08:34.094Z,0
2024-04-15T02:09:50.401Z,0
2024-04-15T02:11:06.696Z,0
2024-04-15T02:12:22.980Z,0
2024-04-15T02:13:39.286Z,0
2024-04-15T02:14:55.610Z,0
2024-04-15T02:16:11.872Z,0
2024-04-15T02:17:28.159Z,0
2024-04-15T02:18:44.450Z,0
2024-04-15T02:20:00.865Z,0
2024-04-15T02:21:17.157Z,0
2024-04-15T02:22:33.465Z,0
2024-04-15T02:23:49.807Z,0
2024-04-15T02:25:06.057Z,0
2024-04-15T02:26:22.352Z,0
2024-04-15T02:27:38.683Z,0
2024-04-15T02:28:54.921Z,0
2024-04-15T02:30:11.219Z,0
2024-04-15T02:31:27.517Z,0
2024-04-15T02:32:43.803Z,0
2024-04-15T02:34:00.100Z,0
2024-04-15T02:35:16.402Z,0
2024-04-15T02:36:31.710Z,0
2024-04-15T02:37:48.011Z,0
2024-04-15T02:39:04.306Z,0
2024-04-15T02:40:20.638Z,0
2024-04-15T02:41:36.929Z,0
2024-04-15T02:42:53.187Z,0
2024-04-15T02:44:09.469Z,0
2024-04-15T02:45:25.816Z,0
2024-04-15T02:46:42.061Z,0
2024-04-15T02:47:58.348Z,0
2024-04-15T02:49:14.643Z,0
2024-04-15T02:50:30.946Z,0
2024-04-15T02:51:47.245Z,0
2024-04-15T02:53:02.546Z,0
2024-04-15T02:54:18.848Z,0
2024-04-15T02:55:35.127Z,0
2024-04-15T02:56:51.431Z,0
2024-04-15T02:58:07.720Z,0
2024-04-15T02:59:24.022Z,0
2024-04-15T03:00:40.357Z,0
2024-04-15T03:01:56.618Z,0
2024-04-15T03:03:12.898Z,0
2024-04-15T03:04:29.241Z,0
2024-04-15T03:05:45.482Z,0
2024-04-15T03:07:01.829Z,0
2024-04-15T03:08:18.070Z,0
2024-04-15T03:09:33.378Z,0
2024-04-15T03:10:49.676Z,0
2024-04-15T03:12:05.985Z,0
2024-04-15T03:13:22.266Z,0
2024-04-15T03:14:38.572Z,0
2024-04-15T03:15:54.864Z,0
2024-04-15T03:17:11.145Z,0
2024-04-15T03:18:27.445Z,0
2024-04-15T03:19:43.747Z,0
2024-04-15T03:21:00.029Z,0
2024-04-15T03:22:16.329Z,0
2024-04-15T03:23:32.671Z,0
2024-04-15T03:24:48.922Z,0
2024-04-15T03:26:05.336Z,0
2024-04-15T03:27:21.631Z,0
2024-04-15T03:28:37.921Z,0
2024-04-15T03:29:54.216Z,0
2024-04-15T03:31:10.509Z,0
2024-04-15T03:32:26.795Z,0
2024-04-15T03:33:43.096Z,0
2024-04-15T03:34:59.435Z,0
2024-04-15T03:36:15.678Z,0
2024-04-15T03:37:31.979Z,0
2024-04-15T03:38:48.262Z,0
2024-04-15T03:40:04.570Z,0
2024-04-15T03:41:20.861Z,0
2024-04-15T03:42:36.173Z,0
2024-04-15T03:43:52.468Z,0
2024-04-15T03:45:08.753Z,0
2024-04-15T03:46:25.049Z,0
2024-04-15T03:47:41.345Z,0
2024-04-15T03:48:57.635Z,0
2024-04-15T03:50:13.875Z,0
2024-04-15T03:51:30.173Z,0
2024-04-15T03:52:46.476Z,0
2024-04-15T03:54:02.722Z,0
2024-04-15T03:55:18.964Z,0
2024-04-15T03:56:35.255Z,0
2024-04-15T03:57:51.547Z,0
2024-04-15T03:59:06.000Z,0
2024-04-15T04:00:23.058Z,0
2024-04-15T04:01:39.000Z,0
2024-04-15T04:02:55.535Z,0
2024-04-15T04:04:11.781Z,0
2024-04-15T04:05:28.015Z,0
2024-04-15T04:06:44.250Z,0
2024-04-15T04:08:00.497Z,0
2024-04-15T04:09:16.740Z,0
2024-04-15T04:10:32.988Z,0
2024-04-15T04:11:49.221Z,0
2024-04-15T04:13:05.453Z,0
2024-04-15T04:14:21.698Z,0
2024-04-15T04:15:36.965Z,0
2024-04-15T04:16:53.191Z,0
2024-04-15T04:18:09.426Z,0
2024-04-15T04:19:25.682Z,0
2024-04-15T04:20:41.922Z,0
2024-04-15T04:21:58.158Z,0
2024-04-15T04:23:14.400Z,0
2024-04-15T04:24:30.629Z,0
2024-04-15T04:25:46.878Z,0
2024-04-15T04:27:03.120Z,0
2024-04-15T04:28:19.000Z,0
2024-04-15T04:29:35.596Z,0
2024-04-15T04:30:51.847Z,0
2024-04-15T04:32:07.098Z,0
2024-04-15T04:33:23.342Z,0
2024-04-15T04:34:39.568Z,0
2024-04-15T04:35:55.814Z,0
2024-04-15T04:37:12.045Z,5
2024-04-15T04:38:28.292Z,5
2024-04-15T04:39:44.541Z,5
2024-04-15T04:41:00.780Z,5
2024-04-15T04:42:17.011Z,5
2024-04-15T04:43:33.302Z,5
2024-04-15T04:44:49.496Z,5
2024-04-15T04:46:05.729Z,5
2024-04-15T04:47:21.977Z,5
2024-04-15T04:48:37.226Z,5
2024-04-15T04:49:53.469Z,5
2024-04-15T04:51:09.713Z,5
2024-04-15T04:52:25.951Z,5
2024-04-15T04:53:42.194Z,5
2024-04-15T04:54:58.423Z,5
2024-04-15T04:56:14.673Z,5
2024-04-15T04:57:30.910Z,5
2024-04-15T04:58:47.144Z,5
2024-04-15T05:00:03.394Z,5
2024-04-15T05:01:19.631Z,5
2024-04-15T05:02:35.884Z,5
2024-04-15T05:03:52.113Z,11
2024-04-15T05:05:07.364Z,11
2024-04-15T05:06:23.604Z,11
2024-04-15T05:07:39.843Z,11
2024-04-15T05:08:56.080Z,11
2024-04-15T05:10:12.324Z,11
2024-04-15T05:11:28.577Z,11
2024-04-15T05:12:44.800Z,11
2024-04-15T05:14:01.050Z,11
2024-04-15T05:15:17.297Z,11
2024-04-15T05:16:33.526Z,11
2024-04-15T05:17:49.829Z,16
2024-04-15T05:19:06.058Z,16
2024-04-15T05:20:22.257Z,22
2024-04-15T05:21:37.500Z,28
2024-04-15T05:22:53.807Z,28
2024-04-15T05:24:09.981Z,33
2024-04-15T05:25:26.233Z,33
2024-04-15T05:26:42.475Z,33
2024-04-15T05:27:58.700Z,28
2024-04-15T05:29:14.992Z,28
2024-04-15T05:30:31.178Z,33
2024-04-15T05:31:47.470Z,33
2024-04-15T05:33:03.663Z,39
2024-04-15T05:34:19.911Z,39
2024-04-15T05:35:36.141Z,45
2024-04-15T05:36:52.379Z,50
2024-04-15T05:38:07.636Z,50
2024-04-15T05:39:23.940Z,56
2024-04-15T05:40:40.124Z,56
2024-04-15T05:41:56.364Z,56
2024-04-15T05:43:12.602Z,56
2024-04-15T05:44:28.887Z,61
2024-04-15T05:45:44.113Z,67
2024-04-15T05:47:00.391Z,73
2024-04-15T05:48:16.576Z,84
2024-04-15T05:49:32.833Z,90
2024-04-15T05:50:49.075Z,106
2024-04-15T05:52:05.309Z,118
2024-04-15T05:53:21.551Z,112
2024-04-15T05:54:37.842Z,129
2024-04-15T05:55:54.036Z,123
2024-04-15T05:57:10.272Z,140
2024-04-15T05:58:26.556Z,163
2024-04-15T05:59:42.740Z,174
2024-04-15T06:00:58.987Z,163
2024-04-15T06:02:14.245Z,157
2024-04-15T06:03:30.478Z,157
2024-04-15T06:04:46.733Z,163
2024-04-15T06:06:02.971Z,157
2024-04-15T06:07:19.204Z,151
2024-04-15T06:08:35.437Z,157
2024-04-15T06:09:51.736Z,163
2024-04-15T06:11:07.921Z,163
2024-04-15T06:12:24.156Z,191
2024-04-15T06:13:40.409Z,168
2024-04-15T06:14:56.639Z,241
2024-04-15T06:16:12.941Z,241
2024-04-15T06:17:29.186Z,168
2024-04-15T06:18:44.389Z,258
2024-04-15T06:20:00.679Z,264
2024-04-15T06:21:16.856Z,275
2024-04-15T06:22:33.094Z,286
2024-04-15T06:23:49.350Z,241
2024-04-15T06:25:05.579Z,208
2024-04-15T06:26:21.828Z,253
2024-04-15T06:27:38.058Z,225
2024-04-15T06:28:54.294Z,286
2024-04-15T06:30:10.589Z,247
2024-04-15T06:31:26.788Z,236
2024-04-15T06:32:43.016Z,281
2024-04-15T06:33:59.309Z,298
2024-04-15T06:35:15.619Z,298
2024-04-15T06:36:31.911Z,298
2024-04-15T06:37:48.156Z,241
2024-04-15T06:39:04.401Z,309
2024-04-15T06:40:20.576Z,309
2024-04-15T06:41:36.834Z,309
2024-04-15T06:42:53.053Z,320
2024-04-15T06:44:09.350Z,331
2024-04-15T06:45:25.596Z,241
2024-04-15T06:46:41.788Z,320
2024-04-15T06:47:58.034Z,281
2024-04-15T06:49:14.262Z,292
2024-04-15T06:51:46.747Z,337
2024-04-15T06:53:01.992Z,354
2024-04-15T06:54:18.233Z,331
2024-04-15T06:55:34.532Z,343
2024-04-15T06:56:50.715Z,348
2024-04-15T06:58:06.963Z,315
2024-04-15T06:59:23.205Z,315
2024-04-15T07:00:39.442Z,331
2024-04-15T07:01:55.672Z,326
2024-04-15T07:03:11.968Z,303
2024-04-15T07:04:28.164Z,275
2024-04-15T07:05:44.406Z,253
2024-04-15T07:07:00.692Z,241
2024-04-15T07:08:16.933Z,241
2024-04-15T07:09:32.138Z,247
2024-04-15T07:10:48.384Z,253
2024-04-15T07:12:04.612Z,253
2024-04-15T07:13:20.860Z,247
2024-04-15T07:14:37.095Z,247
2024-04-15T07:15:53.345Z,247
2024-04-15T07:17:09.585Z,247
2024-04-15T07:18:25.806Z,258
2024-04-15T07:19:42.114Z,275
2024-04-15T07:20:58.293Z,303
2024-04-15T07:22:14.529Z,331
2024-04-15T07:23:30.773Z,343
2024-04-15T07:24:47.009Z,331
2024-04-15T07:26:02.269Z,326
2024-04-15T07:27:18.577Z,309
2024-04-15T07:28:34.758Z,303
2024-04-15T07:29:50.997Z,320
2024-04-15T07:31:07.297Z,337
2024-04-15T07:32:23.467Z,337
2024-04-15T07:33:39.760Z,331
2024-04-15T07:34:56.002Z,326
2024-04-15T07:36:12.191Z,320
2024-04-15T07:37:28.487Z,303
2024-04-15T07:38:44.677Z,292
2024-04-15T07:40:00.966Z,281
2024-04-15T07:41:17.153Z,253
2024-04-15T07:42:32.469Z,236
2024-04-15T07:43:48.647Z,213
2024-04-15T07:45:04.894Z,196
2024-04-15T07:47:37.370Z,191
2024-04-15T07:48:53.612Z,213
2024-04-15T07:50:09.841Z,230
2024-04-15T07:51:26.094Z,230
2024-04-15T07:52:42.323Z,213
2024-04-15T07:53:58.571Z,202
2024-04-15T07:55:14.799Z,208
2024-04-15T07:56:31.053Z,253
2024-04-15T07:57:47.280Z,331
2024-04-15T07:59:02.540Z,506
2024-04-15T08:00:18.785Z,478
2024-04-15T08:01:35.020Z,545
2024-04-15T08:02:51.256Z,646
2024-04-15T08:04:07.500Z,483
2024-04-15T08:05:23.748Z,455
2024-04-15T08:06:40.044Z,652
2024-04-15T08:07:56.219Z,573
2024-04-15T08:09:12.520Z,506
2024-04-15T08:10:28.709Z,416
2024-04-15T08:11:44.951Z,405
2024-04-15T08:13:01.195Z,365
2024-04-15T08:14:17.425Z,292
2024-04-15T08:15:32.689Z,309
2024-04-15T08:16:48.918Z,331
2024-04-15T08:18:05.165Z,388
2024-04-15T08:19:21.403Z,382
2024-04-15T08:20:37.641Z,405
2024-04-15T08:21:53.873Z,506
2024-04-15T08:23:10.174Z,635
2024-04-15T08:24:26.354Z,489
2024-04-15T08:25:42.596Z,450
2024-04-15T08:26:58.847Z,500
2024-04-15T08:28:15.151Z,500
2024-04-15T08:29:31.317Z,601
2024-04-15T08:30:47.624Z,461
2024-04-15T08:32:02.880Z,433
2024-04-15T08:33:19.062Z,427
2024-04-15T08:34:35.307Z,438
2024-04-15T08:35:51.541Z,405
2024-04-15T08:37:07.780Z,354
2024-04-15T08:38:24.020Z,376
2024-04-15T08:39:40.257Z,337
2024-04-15T08:40:56.492Z,320
2024-04-15T08:42:12.801Z,275
2024-04-15T08:43:28.970Z,230
2024-04-15T08:44:45.220Z,230
2024-04-15T08:46:01.449Z,213
2024-04-15T08:47:17.699Z,213
2024-04-15T08:48:32.953Z,241
2024-04-15T08:49:49.200Z,236
2024-04-15T08:51:05.431Z,241
2024-04-15T08:52:21.731Z,270
2024-04-15T08:53:37.922Z,315
2024-04-15T08:54:54.148Z,331
2024-04-15T08:56:10.387Z,343
2024-04-15T08:57:26.689Z,337
2024-04-15T08:58:42.871Z,331
2024-04-15T08:59:59.167Z,337
2024-04-15T09:01:15.424Z,360
2024-04-15T09:02:31.589Z,399
2024-04-15T09:03:47.907Z,489
2024-04-15T09:05:03.086Z,444
2024-04-15T09:06:19.341Z,343
2024-04-15T09:07:35.571Z,331
2024-04-15T09:08:51.818Z,483
2024-04-15T09:10:08.052Z,320
2024-04-15T09:11:24.351Z,298
2024-04-15T09:12:40.531Z,315
2024-04-15T09:13:56.834Z,405
2024-04-15T09:15:13.023Z,500
2024-04-15T09:16:29.246Z,421
2024-04-15T09:17:45.555Z,399
2024-04-15T09:19:01.728Z,466
2024-04-15T09:20:17.976Z,365
2024-04-15T09:21:33.235Z,382
2024-04-15T09:22:49.459Z,348
2024-04-15T09:24:05.704Z,348
2024-04-15T09:25:22.004Z,275
2024-04-15T09:26:38.252Z,264
2024-04-15T09:27:54.423Z,270
2024-04-15T09:29:10.667Z,292
2024-04-15T09:30:26.965Z,315
2024-04-15T09:31:43.143Z,309
2024-04-15T09:32:59.383Z,298
2024-04-15T09:34:15.695Z,298
2024-04-15T09:35:31.925Z,264
2024-04-15T09:36:48.117Z,292
2024-04-15T09:38:03.369Z,331
2024-04-15T09:39:19.599Z,348
2024-04-15T09:40:35.851Z,337
2024-04-15T09:41:52.093Z,360
2024-04-15T09:43:08.326Z,399
2024-04-15T09:44:24.636Z,393
2024-04-15T09:45:40.863Z,410
2024-04-15T09:46:57.042Z,511
2024-04-15T09:48:13.280Z,568
2024-04-15T09:49:29.519Z,613
2024-04-15T09:50:45.764Z,601
2024-04-15T09:52:02.005Z,624
2024-04-15T09:53:18.252Z,556
2024-04-15T09:54:33.505Z,433
2024-04-15T09:55:49.751Z,416
2024-04-15T09:57:05.986Z,562
2024-04-15T09:58:22.285Z,365
2024-04-15T09:59:38.455Z,360
2024-04-15T10:00:53.733Z,348
2024-04-15T10:02:09.959Z,365
2024-04-15T10:03:26.273Z,393
2024-04-15T10:04:42.448Z,382
2024-04-15T10:05:58.688Z,382
2024-04-15T10:07:14.995Z,388
2024-04-15T10:08:31.172Z,371
2024-04-15T10:09:47.415Z,354
2024-04-15T10:12:19.887Z,309
2024-04-15T10:13:36.124Z,292
2024-04-15T10:14:52.368Z,298
2024-04-15T10:16:08.665Z,270
2024-04-15T10:17:23.919Z,253
2024-04-15T10:18:40.100Z,241
2024-04-15T10:19:56.352Z,241
2024-04-15T10:21:12.657Z,230
2024-04-15T10:22:28.817Z,191
2024-04-15T10:23:45.066Z,168
2024-04-15T10:25:01.310Z,168
2024-04-15T10:26:17.617Z,168
2024-04-15T10:27:33.774Z,163
2024-04-15T10:28:50.012Z,180
2024-04-15T10:30:06.253Z,185
2024-04-15T10:31:22.511Z,180
2024-04-15T10:32:38.808Z,163
2024-04-15T10:33:54.066Z,163
2024-04-15T10:35:10.248Z,191
2024-04-15T10:36:26.473Z,247
2024-04-15T10:37:42.712Z,315
2024-04-15T10:38:58.959Z,320
2024-04-15T10:40:15.266Z,331
2024-04-15T10:41:31.432Z,444
2024-04-15T10:42:47.678Z,416
2024-04-15T10:44:03.909Z,433
2024-04-15T10:45:20.157Z,472
2024-04-15T10:46:36.473Z,438
2024-04-15T10:47:52.647Z,461
2024-04-15T10:49:08.948Z,337
2024-04-15T10:50:24.130Z,298
2024-04-15T10:51:40.379Z,292
2024-04-15T10:52:56.621Z,286
2024-04-15T10:54:12.864Z,230
2024-04-15T10:55:29.087Z,213
2024-04-15T10:56:45.395Z,219
2024-04-15T10:58:01.642Z,225
2024-04-15T10:59:17.806Z,225
2024-04-15T11:00:34.119Z,225
2024-04-15T11:01:50.294Z,236
2024-04-15T11:03:06.528Z,264
2024-04-15T11:04:22.840Z,298
2024-04-15T11:05:39.024Z,326
2024-04-15T11:06:54.349Z,320
2024-04-15T11:08:10.593Z,337
2024-04-15T11:09:26.816Z,405
2024-04-15T11:10:42.986Z,421
2024-04-15T11:11:59.237Z,534
2024-04-15T11:13:15.534Z,478
2024-04-15T11:14:31.710Z,455
2024-04-15T11:15:47.963Z,410
2024-04-15T11:17:04.264Z,410
2024-04-15T11:18:20.430Z,410
2024-04-15T11:19:36.743Z,427
2024-04-15T11:20:52.902Z,450
2024-04-15T11:22:09.150Z,444
2024-04-15T11:23:24.409Z,410
2024-04-15T11:24:40.648Z,410
2024-04-15T11:25:56.891Z,399
2024-04-15T11:27:13.195Z,388
2024-04-15T11:28:29.450Z,348
2024-04-15T11:29:45.610Z,376
2024-04-15T11:31:01.921Z,365
2024-04-15T11:32:18.079Z,354
2024-04-15T11:33:34.322Z,371
2024-04-15T11:34:50.573Z,388
2024-04-15T11:36:06.808Z,376
2024-04-15T11:37:23.114Z,371
2024-04-15T11:38:39.287Z,360
2024-04-15T11:39:54.550Z,354
2024-04-15T11:41:10.785Z,360
2024-04-15T11:42:27.029Z,348
2024-04-15T11:43:43.267Z,354
2024-04-15T11:44:59.501Z,343
2024-04-15T11:46:15.744Z,343
2024-04-15T11:47:31.980Z,348
2024-04-15T11:48:48.229Z,337
2024-04-15T11:50:04.526Z,331
2024-04-15T11:51:20.702Z,286
2024-04-15T11:52:36.934Z,337
2024-04-15T11:53:53.261Z,360
2024-04-15T11:55:09.422Z,331
2024-04-15T11:56:24.673Z,298
2024-04-15T11:57:40.985Z,309
2024-04-15T11:58:57.236Z,371
2024-04-15T12:00:13.463Z,360
2024-04-15T12:01:29.633Z,365
2024-04-15T12:02:45.886Z,376
2024-04-15T12:04:02.199Z,371
2024-04-15T12:05:18.359Z,376
2024-04-15T12:06:34.662Z,376
2024-04-15T12:07:50.829Z,360
2024-04-15T12:09:07.146Z,354
2024-04-15T12:10:23.324Z,343
2024-04-15T12:11:39.625Z,247
2024-04-15T12:12:54.898Z,253
2024-04-15T12:14:11.048Z,331
2024-04-15T12:15:27.297Z,303
2024-04-15T12:16:43.545Z,292
2024-04-15T12:17:59.771Z,298
2024-04-15T12:19:16.016Z,298
2024-04-15T12:20:32.249Z,292
2024-04-15T12:21:48.490Z,281
2024-04-15T12:23:04.733Z,315
2024-04-15T12:24:20.967Z,309
2024-04-15T12:25:37.210Z,348
2024-04-15T12:26:53.446Z,393
2024-04-15T12:28:09.695Z,365
2024-04-15T12:29:25.028Z,360
2024-04-15T12:30:41.254Z,348
2024-04-15T12:31:57.504Z,281
2024-04-15T12:33:13.662Z,343
2024-04-15T12:34:29.920Z,371
2024-04-15T12:35:46.155Z,376
2024-04-15T12:37:02.384Z,360
2024-04-15T12:38:18.637Z,354
2024-04-15T12:39:34.861Z,315
2024-04-15T12:40:51.113Z,270
2024-04-15T12:42:07.350Z,281
2024-04-15T12:43:23.579Z,230
2024-04-15T12:44:39.830Z,191
2024-04-15T12:45:55.082Z,191
2024-04-15T12:47:11.314Z,174
2024-04-15T12:48:27.570Z,174
2024-04-15T12:49:43.802Z,185
2024-04-15T12:51:00.034Z,185
2024-04-15T12:52:16.294Z,213
2024-04-15T12:53:32.591Z,247
2024-04-15T12:54:48.760Z,258
2024-04-15T12:56:04.997Z,264
2024-04-15T12:57:21.243Z,298
2024-04-15T12:58:37.555Z,337
2024-04-15T12:59:53.793Z,326
2024-04-15T13:01:09.958Z,275
2024-04-15T13:02:25.213Z,247
2024-04-15T13:03:41.455Z,236
2024-04-15T13:04:57.697Z,264
2024-04-15T13:06:13.929Z,292
2024-04-15T13:07:30.182Z,281
2024-04-15T13:08:46.427Z,315
2024-04-15T13:10:02.742Z,303
2024-04-15T13:11:18.893Z,270
2024-04-15T13:12:35.209Z,253
2024-04-15T13:13:51.453Z,241
2024-04-15T13:15:07.688Z,236
2024-04-15T13:16:23.936Z,236
2024-04-15T13:17:40.101Z,247
2024-04-15T13:18:55.350Z,253
2024-04-15T13:20:11.586Z,241
2024-04-15T13:21:27.904Z,230
2024-04-15T13:22:44.084Z,241
2024-04-15T13:24:00.321Z,236
2024-04-15T13:25:16.633Z,264
2024-04-15T13:26:32.792Z,292
2024-04-15T13:27:49.116Z,315
2024-04-15T13:29:05.281Z,286
2024-04-15T13:30:21.503Z,275
2024-04-15T13:31:37.758Z,286
2024-04-15T13:32:53.984Z,286
2024-04-15T13:34:10.241Z,253
2024-04-15T13:35:25.485Z,247
2024-04-15T13:36:41.803Z,241
2024-04-15T13:37:57.962Z,241
2024-04-15T13:39:14.203Z,253
2024-04-15T13:40:30.443Z,264
2024-04-15T13:41:46.762Z,258
2024-04-15T13:43:03.013Z,298
2024-04-15T13:44:19.248Z,292
2024-04-15T13:45:35.406Z,292
2024-04-15T13:46:51.642Z,264
2024-04-15T13:48:07.957Z,264
2024-04-15T13:49:24.138Z,258
2024-04-15T13:50:40.441Z,230
2024-04-15T13:51:55.695Z,236
2024-04-15T13:53:11.856Z,253
2024-04-15T13:54:28.097Z,241
2024-04-15T13:55:44.354Z,247
2024-04-15T13:57:00.596Z,258
2024-04-15T13:58:16.893Z,286
2024-04-15T13:59:33.065Z,320
2024-04-15T14:02:05.538Z,303
2024-04-15T14:03:21.776Z,298
2024-04-15T14:04:38.032Z,258
2024-04-15T14:05:54.262Z,275
2024-04-15T14:08:26.734Z,258
2024-04-15T14:09:42.087Z,241
2024-04-15T14:10:58.237Z,253
2024-04-15T14:12:14.470Z,258
2024-04-15T14:13:30.721Z,258
2024-04-15T14:14:46.964Z,253
2024-04-15T14:16:03.404Z,253
2024-04-15T14:17:19.648Z,236
2024-04-15T14:18:35.796Z,225
2024-04-15T14:19:52.051Z,225
2024-04-15T14:21:08.275Z,208
2024-04-15T14:22:24.600Z,196
2024-04-15T14:23:40.842Z,191
2024-04-15T14:24:57.079Z,196
2024-04-15T14:26:13.242Z,196
2024-04-15T14:27:29.480Z,191
2024-04-15T14:28:45.725Z,191
2024-04-15T14:30:01.962Z,151
2024-04-15T14:31:18.206Z,146
2024-04-15T14:32:33.552Z,151
2024-04-15T14:33:49.783Z,146
2024-04-15T14:35:05.946Z,157
2024-04-15T14:36:22.180Z,208
2024-04-15T14:37:38.414Z,219
2024-04-15T14:38:54.663Z,213
2024-04-15T14:40:10.906Z,163
2024-04-15T14:41:27.222Z,163
2024-04-15T14:42:43.382Z,196
2024-04-15T14:43:59.628Z,219
2024-04-15T14:45:15.944Z,213
2024-04-15T14:46:32.092Z,208
2024-04-15T14:47:48.337Z,191
2024-04-15T14:49:03.597Z,202
2024-04-15T14:50:19.838Z,208
2024-04-15T14:51:36.155Z,180
2024-04-15T14:52:52.410Z,168
2024-04-15T14:54:08.635Z,157
2024-04-15T14:55:24.793Z,135
2024-04-15T14:56:41.081Z,123
2024-04-15T14:57:57.307Z,118
2024-04-15T14:59:13.553Z,112
2024-04-15T15:00:29.800Z,112
2024-04-15T15:01:46.026Z,118
2024-04-15T15:03:02.269Z,118
2024-04-15T15:04:18.522Z,112
2024-04-15T15:05:33.775Z,101
2024-04-15T15:06:50.016Z,95
2024-04-15T15:08:06.249Z,95
2024-04-15T15:09:22.491Z,95
2024-04-15T15:10:38.739Z,95
2024-04-15T15:11:54.976Z,106
2024-04-15T15:13:11.221Z,112
2024-04-15T15:14:27.446Z,112
2024-04-15T15:15:43.683Z,112
2024-04-15T15:16:59.934Z,112
2024-04-15T15:18:16.161Z,118
2024-04-15T15:19:32.415Z,118
2024-04-15T15:20:48.655Z,106
2024-04-15T15:22:03.908Z,95
2024-04-15T15:23:20.142Z,90
2024-04-15T15:24:36.383Z,78
2024-04-15T15:25:52.626Z,73
2024-04-15T15:27:08.862Z,73
2024-04-15T15:28:25.112Z,67
2024-04-15T15:29:41.350Z,61
2024-04-15T15:30:57.593Z,56
2024-04-15T15:32:13.818Z,45
2024-04-15T15:33:30.069Z,39
2024-04-15T15:34:46.306Z,39
2024-04-15T15:36:02.547Z,33
2024-04-15T15:37:18.788Z,39
2024-04-15T15:38:34.035Z,39
2024-04-15T15:39:50.274Z,45
2024-04-15T15:41:06.515Z,50
2024-04-15T15:42:22.753Z,61
2024-04-15T15:43:39.003Z,73
2024-04-15T15:44:55.235Z,73
2024-04-15T15:46:11.478Z,73
2024-04-15T15:47:27.729Z,73
2024-04-15T15:48:43.969Z,78
2024-04-15T15:50:00.207Z,78
2024-04-15T15:51:16.444Z,84
2024-04-15T15:52:32.680Z,84
2024-04-15T15:53:48.914Z,84
2024-04-15T15:55:04.184Z,84
2024-04-15T15:56:20.415Z,78
2024-04-15T15:57:36.652Z,73
2024-04-15T15:58:52.905Z,67
2024-04-15T16:00:09.137Z,67
2024-04-15T16:01:25.382Z,67
2024-04-15T16:02:41.620Z,67
2024-04-15T16:03:57.861Z,67
2024-04-15T16:05:14.096Z,61
2024-04-15T16:06:30.346Z,56
2024-04-15T16:07:46.577Z,56
2024-04-15T16:09:02.815Z,56
2024-04-15T16:10:19.062Z,50
2024-04-15T16:11:34.315Z,50
2024-04-15T16:12:50.561Z,50
2024-04-15T16:14:06.794Z,50
2024-04-15T16:15:23.031Z,50
2024-04-15T16:16:39.279Z,50
2024-04-15T16:17:55.520Z,50
2024-04-15T16:19:11.769Z,50
2024-04-15T16:20:27.991Z,56
2024-04-15T16:21:44.232Z,50
2024-04-15T16:23:00.472Z,50
2024-04-15T16:24:16.724Z,45
2024-04-15T16:25:32.960Z,45
2024-04-15T16:26:49.194Z,50
2024-04-15T16:28:05.559Z,50
2024-04-15T16:29:21.792Z,50
2024-04-15T16:30:38.040Z,50
2024-04-15T16:31:54.281Z,45
2024-04-15T16:33:10.517Z,45
2024-04-15T16:34:26.770Z,39
2024-04-15T16:35:43.007Z,33
2024-04-15T16:36:59.232Z,33
2024-04-15T16:38:15.472Z,28
2024-04-15T16:39:31.729Z,28
2024-04-15T16:40:47.968Z,33
2024-04-15T16:42:04.196Z,33
2024-04-15T16:43:20.436Z,33
2024-04-15T16:44:35.703Z,33
2024-04-15T16:45:51.941Z,33
2024-04-15T16:47:08.180Z,28
2024-04-15T16:48:24.429Z,28
2024-04-15T16:49:40.652Z,28
2024-04-15T16:50:56.900Z,28
2024-04-15T16:52:13.140Z,22
2024-04-15T16:53:29.379Z,22
2024-04-15T16:54:45.615Z,22
2024-04-15T16:56:01.856Z,22
2024-04-15T16:57:18.101Z,22
2024-04-15T16:58:34.353Z,16
2024-04-15T17:01:06.825Z,22
2024-04-15T17:02:22.077Z,22
2024-04-15T17:03:38.321Z,22
2024-04-15T17:04:54.547Z,22
2024-04-15T17:06:10.802Z,22
2024-04-15T17:07:27.025Z,16
2024-04-15T17:08:43.273Z,16
2024-04-15T17:09:59.511Z,16
2024-04-15T17:11:15.766Z,16
2024-04-15T17:12:31.989Z,16
2024-04-15T17:13:48.233Z,16
2024-04-15T17:15:04.470Z,16
2024-04-15T17:16:20.707Z,11
2024-04-15T17:17:36.943Z,11
2024-04-15T17:18:52.218Z,11
2024-04-15T17:20:08.457Z,11
2024-04-15T17:21:24.681Z,11
2024-04-15T17:22:40.919Z,5
2024-04-15T17:25:13.415Z,5
2024-04-15T17:26:29.646Z,5
2024-04-15T17:27:45.903Z,5
2024-04-15T17:29:02.120Z,5
2024-04-15T17:30:18.384Z,11
2024-04-15T17:31:34.601Z,11
2024-04-15T17:32:50.859Z,11
2024-04-15T17:34:07.087Z,11
2024-04-15T17:35:22.343Z,11
2024-04-15T17:36:38.601Z,11
2024-04-15T17:37:54.818Z,11
2024-04-15T17:39:11.077Z,11
2024-04-15T17:40:27.317Z,5
2024-04-15T17:41:43.551Z,5
2024-04-15T17:42:59.789Z,5
2024-04-15T17:44:16.020Z,5
2024-04-15T17:45:32.270Z,5
2024-04-15T17:46:48.501Z,5
2024-04-15T17:48:04.753Z,5
2024-04-15T17:49:20.990Z,5
2024-04-15T17:50:37.220Z,5
2024-04-15T17:51:52.489Z,5
2024-04-15T17:53:08.725Z,5
2024-04-15T17:54:24.984Z,5
2024-04-15T17:55:41.203Z,5
2024-04-15T17:56:57.456Z,0
2024-04-15T17:58:13.681Z,0
2024-04-15T17:59:29.927Z,0
2024-04-15T18:00:46.173Z,0
2024-04-15T18:02:02.405Z,0
2024-04-15T18:03:18.665Z,0
2024-04-15T18:04:34.875Z,0
2024-04-15T18:05:51.116Z,0
2024-04-15T18:07:07.375Z,0